sim
Sign-in with your pilot id or email,
or register
Callsign
Passwort

Schedule Details

Flight Number: RYR4775
Departure: Thessaloniki International Airport (LGTS) at 05:40
Arrival: Milan Bergamo Il Caravaggio International Airport (LIME) at 07:50
Route: Ryanair Passenger Schedule. Enter filed route here before submitting Pirep.

Weather Information
Getting current METAR information for LGTS 172220Z VRB03KT 9999 FEW025 21/16 Q1015 NOSIG
Getting current METAR information for LIME 172220Z 01004KT 350V050 CAVOK 20/17 Q1016 NOSIG

Schedule Frequency

Route Map